• Join FlightAware (Why Join?)
  • Login
  • US Flag 
02:36PM EDT


 

Airport Tracker/Info


-or-


 

Live Flight TrackerFlight Track Log ✈ N521LL ✈ 22-Apr-2013 ✈ KDZB - KLBB

Flight Track Log - Related Links

Times and Time Zones

All times are in EDT time to prevent confusion due to time zone crossing. See the N521LL flight status page for this flight to view local times or setup timezone preferences in your user account.

Time Position Orientation Groundspeed Altitude Reporting Facility
EDT Latitude Longitude Course Direction KTS MPH feet Rate Location/Type
06:39PM 30.5900 -98.4417 342° North 274 315 7,100  Level Houston Center
06:40PM 30.6108 -98.5256 286° West 284 327 8,900 1,800 Climbing Houston Center
06:41PM 30.6086 -98.6136 268° West 273 314 10,800 2,220 Climbing Houston Center
06:42PM 30.6189 -98.6994 278° West 271 312 13,600 2,280 Climbing Houston Center
06:43PM 30.6781 -98.7622 318° Northwest 285 328 15,600 2,040 Climbing Houston Center
06:44PM 30.7431 -98.8225 321° Northwest 294 338 17,900 2,100 Climbing Houston Center
06:45PM 30.8078 -98.8900 318° Northwest 306 352 20,000 2,100 Climbing Houston Center
06:46PM 30.8883 -98.9664 321° Northwest 316 364 22,300 1,920 Climbing Houston Center
06:47PM 30.9572 -99.0350 320° Northwest 322 371 24,000 1,620 Climbing Houston Center
06:48PM 31.0275 -99.1067 319° Northwest 329 379 25,700 960 Climbing Houston Center
06:49PM 31.0931 -99.1706 320° Northwest 341 392 26,000 120 Climbing Houston Center
06:50PM 31.1900 -99.2667 320° Northwest 378 435 26,000 840 Level Houston Center
06:51PM 31.2708 -99.3458 320° Northwest 380 437 27,800 960 Climbing Houston Center
06:52PM 31.3442 -99.4225 318° Northwest 372 428 28,000 60 Climbing Houston Center
06:53PM 31.4381 -99.4928 327° Northwest 398 458 28,000  Level Houston Center
06:54PM 31.5442 -99.5403 339° North 399 459 28,000  Level Houston Center
06:55PM 31.6486 -99.5972 335° Northwest 412 474 28,000  Level Houston Center
06:56PM 31.7756 -99.6608 337° Northwest 412 474 28,000  Level Houston Center
06:58PM 31.8781 -99.7169 335° Northwest 410 472 28,000  Level Houston Center
06:59PM 31.9969 -99.7772 337° Northwest 407 468 28,000  Level Fort Worth Center
07:00PM 32.1003 -99.8314 336° Northwest 407 468 28,000  Level Fort Worth Center
07:01PM 32.2036 -99.8858 336° Northwest 407 468 28,000  Level Fort Worth Center
07:02PM 32.3069 -99.9403 336° Northwest 407 468 28,000  Level Fort Worth Center
07:03PM 32.4081 -99.9947 336° Northwest 400 460 28,000  Level Fort Worth Center
07:04PM 32.5092 -100.0494 335° Northwest 400 460 28,000  Level Fort Worth Center
07:05PM 32.6122 -100.1067 335° Northwest 400 460 28,000  Level Fort Worth Center
07:06PM 32.7178 -100.1592 337° Northwest 400 460 28,000  Level Fort Worth Center
07:07PM 32.8003 -100.2011 337° Northwest 400 460 28,000  Level Fort Worth Center
07:08PM 32.9136 -100.2617 336° Northwest 400 460 28,000  Level Fort Worth Center
07:09PM 33.0147 -100.3144 336° Northwest 395 455 28,000  Level Fort Worth Center
07:10PM 33.1178 -100.3675 337° Northwest 395 455 28,000  Level Fort Worth Center
07:11PM 33.2169 -100.4203 336° Northwest 395 455 28,000  Level Fort Worth Center
07:12PM 33.3219 -100.4786 335° Northwest 395 455 28,000  Level Fort Worth Center
07:13PM 33.3928 -100.5681 313° West 381 438 28,000 -840 Level Fort Worth Center
07:14PM 33.4208 -100.6886 286° West 355 409 26,400 -1,980 Descending Fort Worth Center
07:14PM 33.4372 -100.7764 283° West 365 420 24,800 -2,100 Descending Fort Worth Center
07:15PM 33.4469 -100.8067 291° West 360 414 24,300 -2,340 Descending Fort Worth Center
07:15PM 33.4614 -100.8844 283° West 361 415 22,700 -2,340 Descending Fort Worth Center
07:16PM 33.4711 -100.9172 290° West 360 414 22,000 -2,340 Descending Fort Worth Center
07:16PM 33.4819 -100.9722 283° West 335 386 20,600 -2,640 Descending Fort Worth Center
07:17PM 33.4969 -101.0328 287° West 342 394 19,400 -2,400 Descending Fort Worth Center
07:17PM 33.5019 -101.0803 277° West 321 369 18,200 -2,700 Descending Fort Worth Center
07:18PM 33.5211 -101.1358 292° West 322 371 16,700 -2,460 Descending Fort Worth Center
07:18PM 33.5297 -101.1986 279° West 322 371 15,500 -2,220 Descending Fort Worth Center
07:19PM 33.5431 -101.2414 291° West 322 371 14,500 -2,400 Descending Fort Worth Center
07:19PM 33.5497 -101.2942 279° West 319 367 13,300 -2,640 Descending Fort Worth Center
07:20PM 33.5797 -101.3353 311° West 317 365 11,900 -2,400 Descending Fort Worth Center
07:20PM 33.5950 -101.3833 291° West 316 364 10,900 -2,100 Descending Fort Worth Center
07:21PM 33.6183 -101.4292 301° West 317 365 9,800 -2,220 Descending Fort Worth Center
07:21PM 33.6319 -101.4672 293° West 308 354 8,900 -1,920 Descending Fort Worth Center
07:22PM 33.6553 -101.5133 301° West 300 345 7,900 -1,200 Descending Fort Worth Center
07:22PM 33.6689 -101.5439 298° West 255 293 7,700 -720 Descending Fort Worth Center
07:23PM 33.6906 -101.5872 301° West 273 314 7,200 -720 Descending Fort Worth Center
07:23PM 33.7039 -101.6206 296° West 252 290 7,000 -840 Descending Fort Worth Center
07:24PM 33.7253 -101.6664 299° West 266 306 6,400 -1,020 Descending Fort Worth Center
07:24PM 33.7306 -101.6992 281° West 266 306 6,000 -1,320 Descending Fort Worth Center
07:25PM 33.7350 -101.7492 276° West 256 295 5,100 -1,140 Descending Fort Worth Center
07:25PM 33.7314 -101.7942 265° West 231 266 4,800 -720 Descending Fort Worth Center
07:26PM 33.7325 -101.8192 273° West 229 264 4,400 -840 Descending Fort Worth Center
07:26PM 33.7114 -101.8331 209° Southwest 151 174 4,000 -900 Descending Fort Worth Center
07:27PM 33.6967 -101.8322 177° South 144 166 3,500 -600 Descending Fort Worth Center
07:28PM 33.6675 -101.8283 174° South 126 145 3,200 -180 Descending Fort Worth Center
07:29PM 33.6592 -101.8328 204° Southwest 65 75 3,200  Level Fort Worth Center